Time;durP1;ratioP1;P1;durP2;ratioP2;P2;SDS_P1;SDS_P2;PMS_P1;PMS_P2;Temp;Humidity;BMP_temperature;BMP_pressure;BME280_temperature;BME280_humidity;BME280_pressure;Samples;Min_cycle;Max_cycle;Signal;HPM_P1;HPM_P2
2023/10/01 00:02:09;;;;;;;10.52;6.80;;;12.30;1.00;;;;;;4994886;28;20493;-85
2023/10/01 00:04:37;;;;;;;10.88;6.50;;;13.00;1.00;;;;;;4995051;28;20409;-85
2023/10/01 00:07:25;;;;;;;12.97;6.60;;;12.20;1.00;;;;;;4994830;28;20401;-85
2023/10/01 00:10:00;;;;;;;12.15;7.38;;;13.30;1.00;;;;;;4995380;28;20429;-85
2023/10/01 00:13:15;;;;;;;11.05;7.00;;;11.20;1.00;;;;;;4993050;28;20398;-85
2023/10/01 00:15:44;;;;;;;11.20;6.83;;;13.00;1.00;;;;;;4927510;29;20468;-85
2023/10/01 00:18:25;;;;;;;;;;;;;;;;;;;;;
2023/10/01 00:21:03;;;;;;;10.60;7.10;;;12.30;1.00;;;;;;4995511;28;20414;-85
2023/10/01 00:23:51;;;;;;;;;;;;;;;;;;;;;
2023/10/01 00:26:36;;;;;;;11.35;7.18;;;13.90;1.00;;;;;;4985441;28;20481;-85
2023/10/01 00:29:09;;;;;;;11.30;7.10;;;14.20;1.00;;;;;;4996215;28;20464;-85
2023/10/01 00:31:42;;;;;;;12.13;7.03;;;11.50;1.00;;;;;;4979880;28;20923;-85
2023/10/01 00:34:11;;;;;;;9.75;6.68;;;12.30;1.00;;;;;;4980463;28;20499;-85
2023/10/01 00:36:40;;;;;;;10.75;7.00;;;12.30;1.00;;;;;;4976875;28;21903;-85
2023/10/01 00:39:08;;;;;;;11.82;6.65;;;15.50;1.00;;;;;;4994506;28;20482;-85
2023/10/01 00:44:29;;;;;;;8.90;6.28;;;12.20;1.00;;;;;;5000415;23;20536;-85
2023/10/01 00:47:04;;;;;;;10.75;6.88;;;14.70;1.00;;;;;;4991152;28;20403;-85
2023/10/01 00:50:05;;;;;;;13.55;7.53;;;12.20;1.00;;;;;;4993767;28;20756;-85
2023/10/01 00:52:42;;;;;;;11.05;6.65;;;12.00;1.00;;;;;;4992785;28;20422;-85
2023/10/01 00:55:34;;;;;;;12.90;7.07;;;11.20;1.00;;;;;;4994323;28;20882;-85
2023/10/01 00:58:10;;;;;;;12.13;7.00;;;13.30;1.00;;;;;;4994294;28;20398;-85
2023/10/01 01:00:46;;;;;;;12.00;7.10;;;12.10;1.00;;;;;;4994511;28;20791;-85
2023/10/01 01:03:24;;;;;;;12.27;6.57;;;11.80;1.00;;;;;;4992752;28;20407;-85
2023/10/01 01:06:13;;;;;;;13.05;7.82;;;12.10;1.00;;;;;;4993254;28;20402;-85
2023/10/01 01:08:49;;;;;;;12.40;7.38;;;12.50;1.00;;;;;;4990680;28;20766;-85
2023/10/01 01:11:29;;;;;;;13.17;7.20;;;12.10;1.00;;;;;;4992851;28;21123;-85
2023/10/01 01:13:57;;;;;;;9.38;6.72;;;13.00;1.00;;;;;;4992833;28;20402;-85
2023/10/01 01:16:42;;;;;;;11.68;6.90;;;15.30;1.00;;;;;;4993871;28;20402;-85
2023/10/01 01:19:16;;;;;;;11.15;6.50;;;11.60;1.00;;;;;;4993653;28;20468;-85
2023/10/01 01:21:55;;;;;;;11.77;6.82;;;13.20;1.00;;;;;;4998994;28;20422;-85
2023/10/01 01:24:42;;;;;;;12.00;7.20;;;13.80;1.00;;;;;;5000200;28;20410;-85
2023/10/01 01:27:18;;;;;;;11.53;7.73;;;12.50;1.00;;;;;;5000758;28;20395;-85
2023/10/01 01:30:08;;;;;;;10.45;6.55;;;11.90;1.00;;;;;;4999932;28;20453;-85
2023/10/01 01:32:57;;;;;;;10.18;6.43;;;14.20;1.00;;;;;;5000585;28;20390;-85
2023/10/01 01:35:34;;;;;;;10.90;6.60;;;11.50;1.00;;;;;;4976278;28;20411;-86
2023/10/01 01:38:07;;;;;;;12.05;7.10;;;11.70;1.00;;;;;;4985351;28;20414;-85
2023/10/01 01:40:56;;;;;;;10.40;7.35;;;11.70;1.00;;;;;;4993015;28;20411;-86
2023/10/01 01:43:22;;;;;;;10.80;6.45;;;11.60;1.00;;;;;;4992327;28;20428;-85
2023/10/01 01:46:00;;;;;;;11.05;7.18;;;15.20;1.00;;;;;;4993096;28;20481;-85
2023/10/01 01:48:33;;;;;;;11.32;6.43;;;11.50;1.00;;;;;;5010534;28;20421;-85
2023/10/01 01:51:40;;;;;;;9.30;6.97;;;12.00;1.00;;;;;;5016536;28;20440;-85
2023/10/01 01:54:21;;;;;;;11.15;6.80;;;12.00;1.00;;;;;;5014097;28;20405;-85
2023/10/01 01:57:13;;;;;;;13.80;7.40;;;15.20;1.00;;;;;;4996631;28;20410;-86
2023/10/01 02:00:10;;;;;;;12.48;6.90;;;13.10;1.00;;;;;;4993232;28;20514;-85
2023/10/01 02:02:59;;;;;;;10.20;6.87;;;12.00;1.00;;;;;;4994589;28;20457;-84
2023/10/01 02:05:41;;;;;;;11.32;6.20;;;11.70;1.00;;;;;;4996805;28;20393;-86
2023/10/01 02:08:34;;;;;;;11.03;6.70;;;11.30;1.00;;;;;;4996125;28;20455;-86
2023/10/01 02:11:22;;;;;;;11.85;6.70;;;12.50;1.00;;;;;;4994919;28;20406;-85
2023/10/01 02:14:07;;;;;;;10.98;6.82;;;14.30;1.00;;;;;;4994050;28;20394;-86
2023/10/01 02:19:55;;;;;;;12.40;7.32;;;11.70;1.00;;;;;;4985845;28;20461;-86
2023/10/01 02:22:24;;;;;;;12.00;6.82;;;11.70;1.00;;;;;;4992351;28;20456;-85
2023/10/01 02:25:36;;;;;;;9.98;6.60;;;13.40;1.00;;;;;;4991787;28;20406;-85
2023/10/01 02:28:14;;;;;;;10.98;6.82;;;11.70;1.00;;;;;;5014268;28;20450;-85
2023/10/01 02:30:57;;;;;;;12.65;7.68;;;15.70;1.00;;;;;;5014078;28;20411;-85
2023/10/01 02:33:54;;;;;;;12.75;6.93;;;11.70;1.00;;;;;;5014246;28;20405;-85
2023/10/01 02:36:22;;;;;;;8.10;5.93;;;11.70;1.00;;;;;;4999717;28;20401;-85
2023/10/01 02:39:02;;;;;;;10.90;7.00;;;12.40;1.00;;;;;;4991584;28;20541;-85
2023/10/01 02:41:40;;;;;;;10.38;6.75;;;10.70;1.00;;;;;;4991536;28;20506;-85
2023/10/01 02:44:11;;;;;;;9.73;6.50;;;13.00;1.00;;;;;;4991925;28;20520;-86
2023/10/01 02:46:50;;;;;;;9.93;6.57;;;10.60;1.00;;;;;;4991981;28;20406;-86
2023/10/01 02:49:26;;;;;;;10.55;6.90;;;13.50;1.00;;;;;;4993276;28;20398;-85
2023/10/01 02:52:03;;;;;;;11.52;6.75;;;11.90;1.00;;;;;;4991674;28;20787;-86
2023/10/01 02:54:31;;;;;;;10.63;6.50;;;11.50;1.00;;;;;;4993692;28;20890;-85
2023/10/01 02:57:12;;;;;;;11.13;6.72;;;11.00;1.00;;;;;;4992646;28;20907;-86
2023/10/01 03:02:37;;;;;;;11.30;6.60;;;9.90;1.00;;;;;;4993953;28;20445;-86
2023/10/01 03:05:09;;;;;;;10.18;6.40;;;9.70;1.00;;;;;;4994416;28;20534;-86
2023/10/01 03:11:22;;;;;;;11.65;7.05;;;11.40;1.00;;;;;;4997185;28;20402;-86
2023/10/01 03:14:04;;;;;;;10.60;7.15;;;13.90;1.00;;;;;;4995653;28;20405;-86
2023/10/01 03:16:53;;;;;;;10.75;6.90;;;10.80;1.00;;;;;;4998238;28;20466;-86
2023/10/01 03:22:15;;;;;;;8.95;6.20;;;11.50;1.00;;;;;;4965454;28;20387;-86
2023/10/01 03:24:45;;;;;;;12.02;7.45;;;11.70;1.00;;;;;;5000547;28;20390;-86
2023/10/01 03:27:33;;;;;;;11.00;6.57;;;11.70;1.00;;;;;;4999524;28;20479;-86
2023/10/01 03:30:19;;;;;;;10.32;6.45;;;11.60;1.00;;;;;;4999437;28;20406;-86
2023/10/01 03:32:46;;;;;;;10.32;6.63;;;11.70;1.00;;;;;;5000645;28;20390;-86
2023/10/01 03:35:12;;;;;;;9.50;6.70;;;10.00;1.00;;;;;;4998361;28;20402;-86
2023/10/01 03:37:38;;;;;;;11.00;6.90;;;11.60;1.00;;;;;;4997652;28;20461;-86
2023/10/01 03:40:22;;;;;;;13.60;6.97;;;11.40;1.00;;;;;;4996424;28;20471;-86
2023/10/01 03:42:51;;;;;;;11.60;6.70;;;11.70;1.00;;;;;;4999521;28;20413;-87
2023/10/01 03:47:59;;;;;;;11.13;6.73;;;11.20;1.00;;;;;;5000044;28;20413;-86
2023/10/01 03:50:25;;;;;;;11.80;7.30;;;10.90;1.00;;;;;;4999519;28;21041;-87
2023/10/01 03:52:53;;;;;;;12.07;7.65;;;11.40;1.00;;;;;;4998577;28;20503;-86
2023/10/01 03:55:26;;;;;;;10.98;6.93;;;11.10;1.00;;;;;;4998721;28;20393;-87
2023/10/01 03:58:18;;;;;;;9.25;6.53;;;14.60;1.00;;;;;;4999092;28;20395;-86
2023/10/01 04:00:41;;;;;;;11.95;7.18;;;10.80;1.00;;;;;;4999455;28;20480;-87
2023/10/01 04:03:16;;;;;;;10.25;6.40;;;9.40;1.00;;;;;;4998818;28;20406;-87
2023/10/01 04:05:46;;;;;;;9.48;6.20;;;10.90;1.00;;;;;;4999238;28;20394;-86
2023/10/01 04:08:15;;;;;;;10.73;6.60;;;10.90;1.00;;;;;;5008822;28;20432;-86
2023/10/01 04:10:41;;;;;;;11.00;7.07;;;9.70;1.00;;;;;;5013655;28;20414;-86
2023/10/01 04:15:41;;;;;;;9.80;6.50;;;10.60;1.00;;;;;;5004619;28;20940;-87
2023/10/01 04:21:17;;;;;;;10.60;7.10;;;9.90;1.00;;;;;;5002942;28;20409;-87
2023/10/01 04:23:41;;;;;;;11.38;6.75;;;11.20;1.00;;;;;;5001775;28;20421;-87
2023/10/01 04:26:08;;;;;;;10.95;6.70;;;11.10;1.00;;;;;;5007635;28;20399;-87
2023/10/01 04:28:35;;;;;;;11.18;6.90;;;10.60;1.00;;;;;;5001567;28;20477;-87
2023/10/01 04:31:09;;;;;;;10.73;6.40;;;11.30;1.00;;;;;;5000772;28;20425;-87
2023/10/01 04:33:42;;;;;;;12.25;6.80;;;11.00;1.00;;;;;;5001382;28;20774;-86
2023/10/01 04:36:10;;;;;;;11.52;6.75;;;11.50;1.00;;;;;;5001324;28;20990;-87
2023/10/01 04:38:37;;;;;;;9.60;6.72;;;11.20;1.00;;;;;;5002721;28;20387;-87
2023/10/01 04:43:56;;;;;;;12.50;6.90;;;8.80;1.00;;;;;;5001807;28;20429;-87
2023/10/01 04:46:27;;;;;;;11.82;7.07;;;10.10;1.00;;;;;;5000703;28;20426;-87
2023/10/01 04:48:54;;;;;;;10.55;6.50;;;13.30;1.00;;;;;;5006163;28;20379;-87
2023/10/01 04:51:22;;;;;;;10.60;6.10;;;11.10;1.00;;;;;;5003730;28;20402;-87
2023/10/01 04:53:52;;;;;;;11.48;7.30;;;11.10;1.00;;;;;;5002005;28;20406;-87
2023/10/01 04:56:25;;;;;;;9.60;6.50;;;11.00;1.00;;;;;;5000513;28;20470;-86
2023/10/01 04:58:54;;;;;;;10.85;6.97;;;10.80;1.00;;;;;;5000954;28;20402;-87
2023/10/01 05:01:28;;;;;;;9.75;6.60;;;11.20;1.00;;;;;;4999555;28;20414;-87
2023/10/01 05:03:56;;;;;;;12.32;7.43;;;12.40;1.00;;;;;;4999431;28;20425;-87
2023/10/01 05:06:22;;;;;;;10.73;7.18;;;10.80;1.00;;;;;;4988667;28;20402;-87
2023/10/01 05:08:51;;;;;;;14.33;7.27;;;11.40;1.00;;;;;;5002199;28;20469;-87
2023/10/01 05:11:21;;;;;;;11.98;7.00;;;10.20;1.00;;;;;;5002986;28;20394;-87
2023/10/01 05:13:48;;;;;;;11.90;6.90;;;11.70;1.00;;;;;;5002138;28;20770;-87
2023/10/01 05:16:15;;;;;;;11.00;7.00;;;11.10;1.00;;;;;;5002154;28;20405;-87
2023/10/01 05:18:45;;;;;;;10.40;7.35;;;12.20;1.00;;;;;;5003819;28;20387;-87
2023/10/01 05:21:12;;;;;;;13.45;7.78;;;10.70;1.00;;;;;;4999708;28;20391;-88
2023/10/01 05:23:45;;;;;;;11.68;7.80;;;11.10;1.00;;;;;;4998298;28;20501;-87
2023/10/01 05:26:11;;;;;;;11.60;6.90;;;14.20;1.00;;;;;;4999785;28;20398;-88
2023/10/01 05:28:41;;;;;;;10.82;7.30;;;11.30;1.00;;;;;;4999181;28;20399;-87
2023/10/01 05:31:15;;;;;;;12.82;6.88;;;11.30;1.00;;;;;;5002693;28;20914;-87
2023/10/01 05:33:45;;;;;;;12.88;7.07;;;10.80;1.00;;;;;;5003061;28;20403;-87
2023/10/01 05:36:16;;;;;;;9.45;6.78;;;13.50;1.00;;;;;;5002781;28;20524;-88
2023/10/01 05:38:43;;;;;;;12.65;7.00;;;11.10;1.00;;;;;;5001105;28;20403;-87
2023/10/01 05:41:29;;;;;;;11.27;6.35;;;11.30;1.00;;;;;;5006656;28;20406;-88
2023/10/01 05:43:55;;;;;;;10.85;7.22;;;11.70;1.00;;;;;;4993653;28;20449;-85
2023/10/01 05:46:27;;;;;;;10.73;6.70;;;10.00;1.00;;;;;;4997061;28;20402;-87
2023/10/01 05:49:00;;;;;;;11.50;6.32;;;10.90;1.00;;;;;;4980106;28;20902;-87
2023/10/01 05:51:44;;;;;;;11.77;6.97;;;10.50;1.00;;;;;;4995118;28;20428;-87
2023/10/01 05:54:12;;;;;;;11.05;7.35;;;10.70;1.00;;;;;;5011973;28;20429;-86
2023/10/01 05:56:39;;;;;;;9.40;7.03;;;11.70;1.00;;;;;;4994463;28;20481;-86
2023/10/01 05:59:06;;;;;;;13.07;7.55;;;9.50;1.00;;;;;;4994416;28;20980;-87
2023/10/01 06:01:35;;;;;;;10.63;7.10;;;13.70;1.00;;;;;;4995555;28;20445;-86
2023/10/01 06:07:33;;;;;;;11.65;6.30;;;12.20;1.00;;;;;;4979813;28;20500;-87
2023/10/01 06:09:59;;;;;;;8.95;5.97;;;11.00;1.00;;;;;;4998959;28;20394;-87
2023/10/01 06:12:25;;;;;;;11.05;6.40;;;13.60;1.00;;;;;;4996536;28;20402;-87
2023/10/01 06:15:03;;;;;;;10.50;7.00;;;13.90;1.00;;;;;;4997532;28;20474;-87
2023/10/01 06:17:29;;;;;;;11.38;7.07;;;10.60;1.00;;;;;;4995574;28;20473;-88
2023/10/01 06:19:54;;;;;;;12.73;7.30;;;11.20;1.00;;;;;;4996006;28;20407;-87
2023/10/01 06:22:22;;;;;;;13.40;7.10;;;10.60;1.00;;;;;;4997197;28;20401;-87
2023/10/01 06:24:49;;;;;;;10.80;7.00;;;11.80;1.00;;;;;;4998310;28;20410;-87
2023/10/01 06:27:18;;;;;;;10.65;6.80;;;10.40;1.00;;;;;;4998052;28;20902;-87
2023/10/01 06:29:49;;;;;;;10.47;6.40;;;9.70;1.00;;;;;;4997284;28;20406;-88
2023/10/01 06:32:20;;;;;;;10.23;6.32;;;11.30;1.00;;;;;;4999169;28;20406;-87
2023/10/01 06:34:47;;;;;;;10.48;6.65;;;12.80;1.00;;;;;;4998556;28;20407;-87
2023/10/01 06:37:14;;;;;;;11.77;7.35;;;11.00;1.00;;;;;;4999734;28;20405;-88
2023/10/01 06:39:46;;;;;;;12.15;6.88;;;11.20;1.00;;;;;;5001005;28;20398;-86
2023/10/01 06:42:18;;;;;;;11.23;6.80;;;11.50;1.00;;;;;;4998990;28;20386;-86
2023/10/01 06:44:45;;;;;;;12.47;7.83;;;10.80;1.00;;;;;;5000445;28;20642;-88
2023/10/01 06:47:17;;;;;;;10.65;6.72;;;12.80;1.00;;;;;;5000011;28;20402;-86
2023/10/01 06:52:35;;;;;;;12.50;7.95;;;10.80;1.00;;;;;;5008795;28;20402;-87
2023/10/01 06:55:04;;;;;;;12.85;7.13;;;12.10;1.00;;;;;;5003043;28;20402;-88
2023/10/01 06:57:33;;;;;;;10.63;6.95;;;12.10;1.00;;;;;;4999628;28;20433;-87
2023/10/01 07:00:04;;;;;;;12.45;6.97;;;12.10;1.00;;;;;;4980879;28;20418;-87
2023/10/01 07:02:31;;;;;;;8.68;6.18;;;12.30;1.00;;;;;;4999644;28;20398;-87
2023/10/01 07:04:59;;;;;;;11.57;7.07;;;12.30;1.00;;;;;;5005868;28;20422;-87
2023/10/01 07:07:28;;;;;;;10.10;6.70;;;12.40;1.00;;;;;;5015553;28;20445;-86
2023/10/01 07:09:56;;;;;;;9.32;6.50;;;12.40;1.00;;;;;;5015793;28;20391;-86
2023/10/01 07:12:23;;;;;;;12.40;7.20;;;12.50;1.00;;;;;;5011207;28;20809;-86
2023/10/01 07:14:50;;;;;;;10.52;6.70;;;12.70;1.00;;;;;;4995377;28;20391;-86
2023/10/01 07:17:24;;;;;;;11.95;7.03;;;11.70;1.00;;;;;;4994843;28;20399;-87
2023/10/01 07:20:00;;;;;;;11.55;7.20;;;14.00;1.00;;;;;;4997853;28;20556;-88
2023/10/01 07:22:34;;;;;;;11.50;7.13;;;14.50;1.00;;;;;;4997679;28;20398;-88
2023/10/01 07:25:03;;;;;;;9.25;6.50;;;16.20;1.00;;;;;;4998783;28;20402;-88
2023/10/01 07:27:29;;;;;;;9.95;6.65;;;13.10;1.00;;;;;;4998908;28;20398;-88
2023/10/01 07:29:56;;;;;;;12.40;7.20;;;12.70;1.00;;;;;;5000635;28;20410;-87
2023/10/01 07:32:24;;;;;;;11.48;7.13;;;13.10;1.00;;;;;;4998538;28;20885;-87
2023/10/01 07:35:06;;;;;;;10.85;6.85;;;14.90;1.00;;;;;;4999978;28;20540;-87
2023/10/01 07:37:37;;;;;;;11.48;7.10;;;16.30;1.00;;;;;;4999655;28;20383;-88
2023/10/01 07:40:09;;;;;;;9.98;6.57;;;13.20;1.00;;;;;;4997421;28;20423;-87
2023/10/01 07:42:46;;;;;;;10.68;6.80;;;13.70;1.00;;;;;;4995564;28;20405;-87
2023/10/01 07:45:22;;;;;;;10.30;6.80;;;12.70;1.00;;;;;;4995377;28;20418;-87
2023/10/01 07:47:51;;;;;;;11.30;6.33;;;13.90;1.00;;;;;;5004592;28;20469;-87
2023/10/01 07:50:17;;;;;;;10.35;6.70;;;14.00;1.00;;;;;;5003639;28;20399;-87
2023/10/01 07:52:44;;;;;;;10.88;6.57;;;14.10;1.00;;;;;;4996367;28;20398;-87
2023/10/01 07:58:22;;;;;;;10.30;7.13;;;14.30;1.00;;;;;;4998774;28;20402;-87
2023/10/01 08:00:43;;;;;;;9.80;7.00;;;15.50;1.00;;;;;;5000510;28;20398;-86
2023/10/01 08:03:34;;;;;;;10.20;6.40;;;15.90;1.00;;;;;;4996830;28;20442;-86
2023/10/01 08:06:15;;;;;;;10.02;5.80;;;14.50;1.00;;;;;;4998203;28;20402;-86
2023/10/01 08:08:47;;;;;;;11.38;6.40;;;14.00;1.00;;;;;;4999812;28;20414;-86
2023/10/01 08:13:59;;;;;;;9.40;6.30;;;14.00;1.00;;;;;;4999233;28;20445;-86
2023/10/01 08:16:27;;;;;;;10.73;6.70;;;15.40;1.00;;;;;;5010518;28;20406;-86
2023/10/01 08:18:57;;;;;;;10.90;6.68;;;15.30;1.00;;;;;;5017849;28;20415;-87
2023/10/01 08:21:36;;;;;;;10.30;6.43;;;15.40;1.00;;;;;;5006527;28;20406;-87
2023/10/01 08:24:09;;;;;;;12.45;7.15;;;14.90;1.00;;;;;;5017843;28;20390;-87
2023/10/01 08:26:43;;;;;;;9.30;6.50;;;15.50;1.00;;;;;;5017001;28;20402;-87
2023/10/01 08:29:15;;;;;;;10.35;6.70;;;15.10;1.00;;;;;;5005733;28;20402;-86
2023/10/01 08:34:27;;;;;;;9.68;6.47;;;15.30;1.00;;;;;;4998808;28;20414;-86
2023/10/01 08:36:57;;;;;;;10.50;6.13;;;15.40;1.00;;;;;;4998418;28;20440;-86
2023/10/01 08:39:47;;;;;;;9.38;6.47;;;15.80;1.00;;;;;;5003183;28;20401;-86
2023/10/01 08:42:13;;;;;;;10.90;6.28;;;16.50;1.00;;;;;;5003389;28;20390;-88
2023/10/01 08:44:45;;;;;;;11.88;7.07;;;17.10;1.00;;;;;;5003479;28;20465;-87
2023/10/01 08:47:24;;;;;;;11.93;7.87;;;16.20;1.00;;;;;;5000858;28;20486;-86
2023/10/01 08:49:51;;;;;;;12.77;6.70;;;16.40;1.00;;;;;;4994915;28;20402;-87
2023/10/01 08:52:26;;;;;;;9.48;6.40;;;17.00;1.00;;;;;;4997509;28;20386;-87
2023/10/01 08:54:56;;;;;;;10.63;6.30;;;16.60;1.00;;;;;;4998458;28;20406;-86
2023/10/01 08:57:37;;;;;;;9.63;6.40;;;17.60;1.00;;;;;;4995634;28;20406;-86
2023/10/01 09:00:15;;;;;;;11.20;6.65;;;17.20;1.00;;;;;;4993831;28;20406;-86
2023/10/01 09:02:41;;;;;;;9.43;6.38;;;17.40;1.00;;;;;;4986566;28;20480;-87
2023/10/01 09:05:09;;;;;;;10.77;6.80;;;19.10;1.00;;;;;;4997882;28;20454;-87
2023/10/01 09:10:53;;;;;;;11.27;7.43;;;17.20;1.00;;;;;;4985021;28;20856;-87
2023/10/01 09:13:41;;;;;;;10.13;6.35;;;17.40;1.00;;;;;;4974579;28;20395;-86
2023/10/01 09:16:30;;;;;;;11.32;7.28;;;16.90;1.00;;;;;;4981904;28;20413;-86
2023/10/01 09:21:55;;;;;;;10.90;6.55;;;17.60;1.00;;;;;;4955805;29;20538;-87
2023/10/01 09:27:32;;;;;;;11.20;6.60;;;17.10;1.00;;;;;;4920357;29;20587;-86
2023/10/01 09:30:47;;;;;;;9.93;6.17;;;20.50;1.00;;;;;;4954264;29;20529;-87
2023/10/01 09:33:29;;;;;;;10.85;6.88;;;17.50;1.00;;;;;;4957226;28;20406;-86
2023/10/01 09:36:33;;;;;;;11.77;6.80;;;18.10;1.00;;;;;;4956516;28;20408;-86
2023/10/01 09:39:58;;;;;;;11.60;7.00;;;21.00;1.00;;;;;;4957068;28;20426;-84
2023/10/01 09:42:56;;;;;;;9.50;6.10;;;18.20;1.00;;;;;;4956223;28;20441;-84
2023/10/01 09:46:00;;;;;;;9.93;6.35;;;18.20;1.00;;;;;;4956296;28;20826;-87
2023/10/01 09:48:48;;;;;;;9.00;5.90;;;18.30;1.00;;;;;;4957696;28;20398;-85
2023/10/01 09:51:22;;;;;;;9.93;6.32;;;18.60;1.00;;;;;;4956096;28;20405;-86
2023/10/01 09:54:07;;;;;;;11.97;7.20;;;18.60;1.00;;;;;;4957623;29;20413;-85
2023/10/01 09:59:39;;;;;;;8.57;5.68;;;18.60;1.00;;;;;;4959466;28;20433;-84
2023/10/01 10:04:57;;;;;;;9.57;6.57;;;18.90;1.00;;;;;;4958304;28;20501;-84
2023/10/01 10:07:44;;;;;;;11.27;6.90;;;18.90;1.00;;;;;;4957847;28;20464;-84
2023/10/01 10:13:45;;;;;;;11.10;7.03;;;19.10;1.00;;;;;;4955637;28;20482;-85
2023/10/01 10:19:32;;;;;;;10.13;6.00;;;20.30;1.00;;;;;;4957507;29;20421;-85
2023/10/01 10:22:06;;;;;;;10.20;6.47;;;19.60;1.00;;;;;;4977359;28;20414;-85
2023/10/01 10:25:21;;;;;;;9.38;6.20;;;19.70;1.00;;;;;;4978272;28;20472;-85
2023/10/01 10:27:49;;;;;;;11.40;6.57;;;21.90;1.00;;;;;;4928753;29;21061;-87
2023/10/01 10:30:21;;;;;;;10.20;6.23;;;20.00;1.00;;;;;;4954118;28;20414;-86
2023/10/01 10:33:17;;;;;;;9.05;5.80;;;18.30;1.00;;;;;;4955035;28;20410;-86
2023/10/01 10:36:28;;;;;;;9.27;6.30;;;20.30;1.00;;;;;;4953991;28;20407;-86
2023/10/01 10:39:15;;;;;;;10.50;6.80;;;21.20;1.00;;;;;;4954526;28;20508;-86
2023/10/01 10:42:28;;;;;;;9.65;6.30;;;20.00;1.00;;;;;;4959848;28;20393;-86
2023/10/01 10:45:24;;;;;;;13.13;7.00;;;20.70;1.00;;;;;;4973737;28;20460;-86
2023/10/01 10:48:27;;;;;;;10.20;6.80;;;19.50;1.00;;;;;;4981386;28;20917;-86
2023/10/01 10:50:57;;;;;;;9.15;6.18;;;21.60;1.00;;;;;;4987516;28;20411;-86
2023/10/01 10:53:52;;;;;;;9.20;6.35;;;23.10;1.00;;;;;;4968824;28;20393;-85
2023/10/01 10:56:35;;;;;;;9.23;6.20;;;21.30;1.00;;;;;;4957020;28;20400;-85
2023/10/01 10:59:03;;;;;;;10.90;6.85;;;20.90;1.00;;;;;;4960017;28;20418;-86
2023/10/01 11:01:44;;;;;;;8.85;6.30;;;21.30;1.00;;;;;;4955618;28;20390;-86
2023/10/01 11:04:11;;;;;;;12.35;6.55;;;21.70;1.00;;;;;;4959494;28;20406;-86
2023/10/01 11:06:42;;;;;;;10.32;6.10;;;22.10;1.00;;;;;;4956782;28;20842;-86
2023/10/01 11:09:30;;;;;;;9.88;6.40;;;19.50;1.00;;;;;;4955032;29;20822;-85
2023/10/01 11:12:01;;;;;;;9.57;6.30;;;22.40;1.00;;;;;;4954248;29;20493;-85
2023/10/01 11:14:26;;;;;;;9.93;6.32;;;22.30;1.00;;;;;;4952256;28;20394;-86
2023/10/01 11:16:52;;;;;;;9.98;7.07;;;24.80;1.00;;;;;;4953847;28;20396;-84
2023/10/01 11:19:25;;;;;;;8.53;6.23;;;23.70;1.00;;;;;;4957225;28;20401;-85
2023/10/01 11:21:55;;;;;;;8.80;6.07;;;25.10;1.00;;;;;;4959178;28;20410;-85
2023/10/01 11:24:32;;;;;;;8.77;6.00;;;24.40;1.00;;;;;;4955372;28;20425;-85
2023/10/01 11:27:43;;;;;;;11.23;7.10;;;24.70;1.00;;;;;;4957704;28;20477;-83
2023/10/01 11:30:19;;;;;;;8.27;5.80;;;24.80;1.00;;;;;;4938522;29;20398;-84
2023/10/01 11:35:33;;;;;;;7.97;6.10;;;25.30;1.00;;;;;;4957223;28;20433;-85
2023/10/01 11:38:10;;;;;;;8.57;7.00;;;25.80;1.00;;;;;;4956917;28;20401;-85
2023/10/01 11:43:27;;;;;;;9.52;6.80;;;25.30;1.00;;;;;;4959773;29;20785;-85
2023/10/01 11:46:19;;;;;;;10.00;6.80;;;25.80;1.00;;;;;;4957926;28;20462;-84
2023/10/01 11:49:04;;;;;;;9.70;6.30;;;25.90;1.00;;;;;;4973405;28;20393;-84
2023/10/01 11:54:19;;;;;;;8.88;6.40;;;24.50;1.00;;;;;;4957286;28;20402;-84
2023/10/01 11:57:04;;;;;;;10.38;6.60;;;25.60;1.00;;;;;;4957373;28;20398;-85
2023/10/01 11:59:31;;;;;;;9.52;6.28;;;25.10;1.00;;;;;;4956671;28;20472;-83
2023/10/01 12:02:15;;;;;;;10.40;6.43;;;24.30;1.00;;;;;;4958073;28;20893;-84
2023/10/01 12:04:45;;;;;;;9.18;6.28;;;25.40;1.00;;;;;;4958460;28;20418;-83
2023/10/01 12:07:18;;;;;;;10.15;6.80;;;25.20;1.00;;;;;;4957755;28;20414;-83
2023/10/01 12:09:51;;;;;;;9.15;6.10;;;25.40;1.00;;;;;;4959016;28;20398;-83
2023/10/01 12:12:21;;;;;;;9.65;5.70;;;25.10;1.00;;;;;;4962062;29;20394;-85
2023/10/01 12:14:55;;;;;;;9.20;5.93;;;24.90;1.00;;;;;;4979159;28;20386;-85
2023/10/01 12:17:26;;;;;;;10.82;6.45;;;25.00;1.00;;;;;;4981276;28;20430;-85
2023/10/01 12:19:53;;;;;;;10.80;6.60;;;25.10;1.00;;;;;;4980020;28;20417;-86
2023/10/01 12:22:24;;;;;;;9.27;6.47;;;25.00;1.00;;;;;;4965150;28;20405;-85
2023/10/01 12:24:56;;;;;;;11.25;6.55;;;25.00;1.00;;;;;;4955987;28;20457;-86
2023/10/01 12:27:41;;;;;;;10.27;6.43;;;25.70;1.00;;;;;;4955365;28;20406;-86
2023/10/01 12:30:30;;;;;;;9.45;6.18;;;25.50;1.00;;;;;;4959374;28;20448;-85
2023/10/01 12:33:02;;;;;;;9.68;6.40;;;24.30;1.00;;;;;;4956746;28;20406;-85
2023/10/01 12:35:28;;;;;;;10.35;6.90;;;25.50;1.00;;;;;;4958599;28;20408;-85
2023/10/01 12:40:36;;;;;;;10.18;6.50;;;25.40;1.00;;;;;;4959684;28;20766;-85
2023/10/01 12:43:50;;;;;;;9.50;6.23;;;25.00;1.00;;;;;;4956389;28;20431;-85
2023/10/01 12:45:58;;;;;;;10.73;6.72;;;25.30;1.00;;;;;;4953410;28;20427;-84
2023/10/01 12:48:24;;;;;;;10.75;6.88;;;25.00;1.00;;;;;;4953580;28;20457;-84
2023/10/01 12:53:48;;;;;;;10.47;6.63;;;24.80;1.00;;;;;;4958151;28;20421;-83
2023/10/01 12:56:16;;;;;;;8.77;6.10;;;25.40;1.00;;;;;;4973109;28;20403;-84
2023/10/01 12:58:53;;;;;;;10.70;7.00;;;25.10;1.00;;;;;;4978238;28;20417;-84
2023/10/01 13:01:53;;;;;;;10.70;6.35;;;25.20;1.00;;;;;;4964595;28;20401;-85
2023/10/01 13:04:48;;;;;;;10.68;6.30;;;25.50;1.00;;;;;;4947668;28;20980;-85
2023/10/01 13:07:03;;;;;;;11.30;6.63;;;24.90;1.00;;;;;;4953986;28;20481;-85
2023/10/01 13:12:14;;;;;;;10.27;7.10;;;24.50;1.00;;;;;;4955941;28;20398;-86
2023/10/01 13:14:43;;;;;;;10.25;6.18;;;24.50;1.00;;;;;;4959336;28;20393;-86
2023/10/01 13:17:22;;;;;;;10.25;6.20;;;25.10;1.00;;;;;;4957071;28;20975;-84
2023/10/01 13:20:00;;;;;;;9.32;6.18;;;24.90;1.00;;;;;;4956037;28;20784;-85
2023/10/01 13:22:25;;;;;;;9.70;6.03;;;25.00;1.00;;;;;;4953977;29;20493;-85
2023/10/01 13:24:54;;;;;;;10.60;6.75;;;25.60;1.00;;;;;;4955385;29;20516;-85
2023/10/01 13:27:23;;;;;;;11.32;6.93;;;24.50;1.00;;;;;;4954948;28;20402;-85
2023/10/01 13:29:49;;;;;;;10.40;7.20;;;24.60;1.00;;;;;;4958732;28;20405;-85
2023/10/01 13:32:26;;;;;;;8.90;6.18;;;25.30;1.00;;;;;;4956583;28;20766;-85
2023/10/01 13:35:20;;;;;;;8.90;6.20;;;25.10;1.00;;;;;;4954112;28;20416;-85
2023/10/01 13:37:44;;;;;;;9.43;5.90;;;25.00;1.00;;;;;;4954946;28;20434;-84
2023/10/01 13:40:12;;;;;;;10.23;6.85;;;25.20;1.00;;;;;;4953668;28;20481;-85
2023/10/01 14:10:04;;;;;;;9.57;6.30;;;25.70;1.00;;;;;;4952554;29;20924;-85
2023/10/01 14:12:54;;;;;;;10.40;6.47;;;25.60;1.00;;;;;;4953143;28;20402;-85
2023/10/01 14:15:26;;;;;;;10.10;6.47;;;26.00;1.00;;;;;;4955017;28;20401;-85
2023/10/01 14:17:56;;;;;;;10.48;6.55;;;25.70;1.00;;;;;;4954154;28;20401;-85
2023/10/01 14:20:38;;;;;;;9.25;6.57;;;25.70;1.00;;;;;;4954205;28;20397;-85
2023/10/01 14:23:05;;;;;;;10.03;7.13;;;26.00;1.00;;;;;;4954628;28;20457;-85
2023/10/01 14:25:30;;;;;;;9.10;6.60;;;25.60;1.00;;;;;;4953934;28;20398;-85
2023/10/01 14:27:59;;;;;;;12.27;6.77;;;26.00;1.00;;;;;;4969250;28;20965;-84
2023/10/01 14:30:25;;;;;;;8.10;5.88;;;26.10;1.00;;;;;;4953193;28;20402;-86
2023/10/01 14:32:58;;;;;;;9.17;6.20;;;26.00;1.00;;;;;;4952231;29;20402;-84
2023/10/01 14:35:37;;;;;;;10.88;6.57;;;26.40;1.00;;;;;;4953595;29;20453;-86
2023/10/01 14:38:05;;;;;;;9.15;6.35;;;26.30;1.00;;;;;;4953552;28;20394;-86
2023/10/01 14:40:31;;;;;;;8.23;5.63;;;25.90;1.00;;;;;;4953403;28;20453;-86
2023/10/01 14:42:59;;;;;;;10.07;6.10;;;25.90;1.00;;;;;;4952096;28;20425;-86
2023/10/01 14:45:33;;;;;;;7.40;5.50;;;26.00;1.00;;;;;;4952463;28;20425;-85
2023/10/01 14:48:06;;;;;;;9.25;6.10;;;25.70;1.00;;;;;;4952483;28;20406;-85
2023/10/01 14:50:39;;;;;;;8.70;6.05;;;26.30;1.00;;;;;;4952418;28;20429;-86
2023/10/01 14:53:09;;;;;;;8.95;6.32;;;25.80;1.00;;;;;;4952609;29;20406;-85
2023/10/01 14:55:40;;;;;;;9.15;6.40;;;25.40;1.00;;;;;;4965752;28;20398;-85
2023/10/01 14:58:12;;;;;;;10.40;6.18;;;25.20;1.00;;;;;;4977735;28;20398;-85
2023/10/01 15:00:49;;;;;;;9.55;6.40;;;25.80;1.00;;;;;;4978148;28;20438;-85
2023/10/01 15:03:17;;;;;;;12.57;6.40;;;25.80;1.00;;;;;;4957635;28;20430;-85
2023/10/01 15:05:42;;;;;;;7.95;6.13;;;25.50;1.00;;;;;;4954366;28;20465;-86
2023/10/01 15:08:08;;;;;;;10.82;7.28;;;25.50;1.00;;;;;;5016144;23;20465;-87
2023/10/01 15:10:33;;;;;;;9.40;6.90;;;26.50;1.00;;;;;;5004561;28;20390;-87
2023/10/01 15:13:01;;;;;;;10.52;6.88;;;26.90;1.00;;;;;;5006449;28;20399;-87
2023/10/01 15:15:30;;;;;;;10.00;6.70;;;25.70;1.00;;;;;;5024545;28;20808;-87
2023/10/01 15:17:56;;;;;;;8.93;6.47;;;24.40;1.00;;;;;;5020453;28;20391;-87
2023/10/01 15:20:30;;;;;;;11.43;6.90;;;25.80;1.00;;;;;;5001811;28;20516;-86
2023/10/01 15:22:56;;;;;;;10.03;7.33;;;25.70;1.00;;;;;;5001147;28;20409;-85